Terminal Aerodrome Forecast
Issued by NWS Northern Indiana

Home | Current Version | Previous Version | Text Only | Print | Product List | Glossary On
Versions: 1 2 3 4 5 6 7 8 9 10 11 12 13 14 15 16 17 18 19 20 21
000
FTUS43 KIWX 180942 AAA
TAFFWA
TAF AMD
KFWA 180942Z 1810/1906 31004KT P6SM VCSH BKN050
      TEMPO 1810/1812 5SM -SHRA BR BKN020
     FM181800 36005KT P6SM BKN040
     FM182100 02005KT P6SM BKN120
     FM190100 09008KT P6SM BKN020=

USA.gov is the U.S. government's official web portal to all federal, state and local government web resources and services.